Terminal Aerodrome Forecast
Issued by NWS

Home | Current Version | Previous Version | Text Only | Print | Product List | Glossary Off
Versions: 1 2 3 4 5 6 7 8 9 10 11 12 13 14 15

000
FTUS42 KMHX 231741
TAFOAJ
TAF
KOAJ 231741Z 2318/2418 22011G20KT P6SM SCT035
     FM232300 21010G18KT P6SM SCT110
     FM241400 24010G18KT P6SM BKN040
      AMD LTD TO CLD VIS AND WIND=

USA.gov is the U.S. government's official web portal to all federal, state and local government web resources and services.